AGP weather

Málaga Airport
Málaga, Andalucía, Spain

Public forecast

Using degrees Celsius for public forecast. Weather courtesy of forecast.io.

Current aviation weather report (METAR) for Málaga Airport

Retrieved 2019/10/22 13:30 UTC (0 seconds ago):

LEMG 221330Z 31008KT 270V340 9999 FEW030CB SCT052 19/09 Q1009 NOSIG

Aviation forecast (TAF) for Málaga Airport

Retrieved 2019/10/22 12:27 UTC (1 hour ago):

TAF LEMG 221100Z 2212/2312 29007KT 9999 FEW040 TX22/2213Z TN12/2306Z PROB40 TEMPO 2212/2218 21012KT 4000 SHRA SCT030CB PROB30 TEMPO 2212/2216 TSRA SCT030CB